Time;durP1;ratioP1;P1;durP2;ratioP2;P2;SDS_P1;SDS_P2;PMS_P1;PMS_P2;Temp;Humidity;BMP_temperature;BMP_pressure;BME280_temperature;BME280_humidity;BME280_pressure;Samples;Min_cycle;Max_cycle;Signal;HPM_P1;HPM_P2
2024/03/12 00:01:07;;;;;;;4.87;2.93;;;7.90;99.90;;;;;;4980886;28;20477;-74
2024/03/12 00:03:42;;;;;;;2.70;2.30;;;8.00;99.90;;;;;;4972099;28;20461;-73
2024/03/12 00:06:09;;;;;;;4.53;2.77;;;7.80;99.90;;;;;;4969108;28;20986;-72
2024/03/12 00:08:36;;;;;;;2.40;2.20;;;7.80;99.90;;;;;;4971084;28;20465;-74
2024/03/12 00:11:03;;;;;;;3.80;2.60;;;7.90;99.90;;;;;;4986330;28;20838;-71
2024/03/12 00:13:29;;;;;;;2.67;2.30;;;7.90;99.90;;;;;;4981968;28;20521;-73
2024/03/12 00:15:55;;;;;;;5.10;2.50;;;7.90;99.90;;;;;;4989424;28;20450;-72
2024/03/12 00:18:25;;;;;;;3.30;2.50;;;7.90;99.90;;;;;;4956892;28;20256;-72
2024/03/12 00:20:52;;;;;;;4.37;3.03;;;7.80;99.90;;;;;;4969118;28;20334;-72
2024/03/12 00:23:18;;;;;;;3.77;2.63;;;7.90;99.90;;;;;;4968085;28;20445;-73
2024/03/12 00:25:44;;;;;;;2.90;2.50;;;7.90;99.90;;;;;;4967774;28;20472;-74
2024/03/12 00:28:11;;;;;;;3.77;2.53;;;7.90;99.90;;;;;;4985119;28;20215;-74
2024/03/12 00:30:40;;;;;;;5.00;2.87;;;7.90;99.90;;;;;;4959651;28;20222;-72
2024/03/12 00:33:07;;;;;;;3.70;2.47;;;7.80;99.90;;;;;;4984002;28;20481;-73
2024/03/12 00:35:35;;;;;;;4.10;3.03;;;7.80;99.90;;;;;;4989648;28;20449;-73
2024/03/12 00:38:03;;;;;;;3.90;2.90;;;7.80;99.90;;;;;;4983345;28;20552;-74
2024/03/12 00:40:39;;;;;;;2.90;2.43;;;7.70;99.90;;;;;;4986183;28;20498;-74
2024/03/12 00:43:08;;;;;;;3.43;2.60;;;7.80;99.90;;;;;;4974427;28;20484;-72
2024/03/12 00:45:37;;;;;;;5.67;3.93;;;7.80;99.90;;;;;;4950599;28;20564;-73
2024/03/12 00:48:09;;;;;;;4.33;2.70;;;7.70;99.90;;;;;;4984258;28;20476;-74
2024/03/12 00:50:36;;;;;;;3.17;2.87;;;7.90;99.90;;;;;;4967739;28;20461;-74
2024/03/12 00:53:02;;;;;;;4.50;3.50;;;7.80;99.90;;;;;;4989318;28;20495;-74
2024/03/12 00:55:28;;;;;;;5.47;3.50;;;7.80;99.90;;;;;;4970913;28;20524;-73
2024/03/12 00:57:55;;;;;;;3.70;3.20;;;7.70;99.90;;;;;;4990043;28;20868;-75
2024/03/12 01:00:33;;;;;;;3.33;2.30;;;7.70;99.90;;;;;;4966236;28;20464;-74
2024/03/12 01:03:00;;;;;;;4.70;3.80;;;7.80;99.90;;;;;;4969008;28;20470;-74
2024/03/12 01:05:30;;;;;;;4.73;3.30;;;7.80;99.90;;;;;;4977949;28;20457;-73
2024/03/12 01:07:58;;;;;;;5.63;3.97;;;7.80;99.90;;;;;;4962925;28;20549;-74
2024/03/12 01:10:28;;;;;;;4.67;3.23;;;7.70;99.90;;;;;;4974996;28;20592;-74
2024/03/12 01:12:56;;;;;;;3.97;3.07;;;7.70;99.90;;;;;;4973350;28;20460;-74
2024/03/12 01:15:26;;;;;;;5.80;4.17;;;7.70;99.90;;;;;;4987590;28;20472;-73
2024/03/12 01:17:53;;;;;;;4.77;3.50;;;7.70;99.90;;;;;;4990565;28;20472;-74
2024/03/12 01:20:24;;;;;;;5.00;3.63;;;7.70;99.90;;;;;;4989011;28;20473;-74
2024/03/12 01:22:51;;;;;;;3.97;3.57;;;7.70;99.90;;;;;;4989899;28;20465;-73
2024/03/12 01:25:17;;;;;;;5.70;4.20;;;7.70;99.90;;;;;;4975687;28;20453;-73
2024/03/12 01:27:43;;;;;;;7.40;4.67;;;7.70;99.90;;;;;;4985077;28;20523;-74
2024/03/12 01:30:14;;;;;;;5.17;3.20;;;7.70;99.90;;;;;;4966762;28;20457;-73
2024/03/12 01:32:44;;;;;;;5.70;4.17;;;7.70;99.90;;;;;;4970992;28;20471;-74
2024/03/12 01:35:12;;;;;;;6.90;4.23;;;7.70;99.90;;;;;;4977148;28;20458;-73
2024/03/12 01:37:43;;;;;;;7.87;4.10;;;7.80;99.90;;;;;;4967387;28;20483;-74
2024/03/12 01:40:19;;;;;;;6.70;4.67;;;7.80;99.90;;;;;;4978439;28;20466;-74
2024/03/12 01:43:01;;;;;;;7.07;4.27;;;7.80;99.90;;;;;;4964061;28;20464;-74
2024/03/12 01:45:28;;;;;;;5.70;4.10;;;7.80;99.90;;;;;;4977485;28;20457;-74
2024/03/12 01:47:58;;;;;;;7.93;3.97;;;7.80;99.90;;;;;;4980897;28;20464;-74
2024/03/12 01:50:26;;;;;;;6.70;4.60;;;7.80;99.90;;;;;;4978827;28;20460;-74
2024/03/12 01:52:59;;;;;;;6.10;4.37;;;7.90;99.90;;;;;;4964144;28;20483;-74
2024/03/12 01:55:26;;;;;;;7.93;3.87;;;7.90;99.90;;;;;;4979059;28;20464;-73
2024/03/12 01:57:53;;;;;;;4.17;3.77;;;8.00;99.90;;;;;;4958168;28;20469;-73
2024/03/12 02:00:19;;;;;;;6.43;3.80;;;8.10;99.90;;;;;;4973003;28;20878;-74
2024/03/12 02:02:53;;;;;;;15.40;4.87;;;8.10;99.90;;;;;;4978750;28;20576;-73
2024/03/12 02:05:19;;;;;;;7.47;5.03;;;8.00;99.90;;;;;;4965054;28;20467;-74
2024/03/12 02:07:48;;;;;;;6.83;4.33;;;8.10;99.90;;;;;;4979678;28;20973;-74
2024/03/12 02:10:15;;;;;;;7.50;4.63;;;8.10;99.90;;;;;;4976057;28;20534;-74
2024/03/12 02:12:41;;;;;;;8.03;5.20;;;8.00;99.90;;;;;;4971087;28;20475;-74
2024/03/12 02:15:08;;;;;;;8.37;4.73;;;8.00;99.90;;;;;;4969913;28;20474;-73
2024/03/12 02:17:34;;;;;;;7.20;5.10;;;8.00;99.90;;;;;;4966179;28;20532;-72
2024/03/12 02:20:00;;;;;;;8.10;4.37;;;8.10;99.90;;;;;;4984031;28;20499;-74
2024/03/12 02:22:31;;;;;;;7.27;5.10;;;8.10;99.90;;;;;;4975883;28;20499;-74
2024/03/12 02:24:58;;;;;;;8.37;5.77;;;8.00;99.90;;;;;;4981683;28;20210;-74
2024/03/12 02:27:25;;;;;;;9.97;4.87;;;8.00;99.90;;;;;;4961271;28;20460;-74
2024/03/12 02:29:50;;;;;;;7.13;5.00;;;8.00;99.90;;;;;;4959443;28;20503;-74
2024/03/12 02:32:17;;;;;;;7.17;4.57;;;8.00;99.90;;;;;;4963463;28;20468;-73
2024/03/12 02:34:43;;;;;;;7.87;5.40;;;8.10;99.90;;;;;;4979061;28;20222;-74
2024/03/12 02:37:09;;;;;;;7.30;4.40;;;8.00;99.90;;;;;;4974077;28;20452;-74
2024/03/12 02:39:35;;;;;;;9.90;4.87;;;8.00;99.90;;;;;;4975610;28;20480;-72
2024/03/12 02:42:01;;;;;;;5.67;4.50;;;7.90;99.90;;;;;;4953846;28;20356;-74
2024/03/12 02:44:26;;;;;;;8.40;5.10;;;7.90;99.90;;;;;;4978521;28;20222;-74
2024/03/12 02:46:54;;;;;;;7.07;4.43;;;8.00;99.90;;;;;;4966900;28;20730;-73
2024/03/12 02:49:22;;;;;;;6.80;5.10;;;7.90;99.90;;;;;;4975745;28;20280;-74
2024/03/12 02:51:49;;;;;;;8.60;5.10;;;7.90;99.90;;;;;;4972871;28;20539;-74
2024/03/12 02:54:15;;;;;;;7.83;5.27;;;7.90;99.90;;;;;;4961639;28;20457;-74
2024/03/12 02:56:42;;;;;;;6.77;4.73;;;7.90;99.90;;;;;;4980042;28;20532;-73
2024/03/12 02:59:11;;;;;;;12.03;5.27;;;7.90;99.90;;;;;;4973889;28;20495;-74
2024/03/12 03:01:38;;;;;;;6.83;4.10;;;7.90;99.90;;;;;;4977287;28;20496;-74
2024/03/12 03:04:04;;;;;;;7.00;3.87;;;7.80;99.90;;;;;;4980351;28;20547;-73
2024/03/12 03:06:30;;;;;;;10.37;6.23;;;7.80;99.90;;;;;;4963843;28;20465;-74
2024/03/12 03:08:55;;;;;;;8.13;5.30;;;7.80;99.90;;;;;;4964489;28;20221;-74
2024/03/12 03:11:21;;;;;;;8.90;4.60;;;7.90;99.90;;;;;;4976345;28;20644;-74
2024/03/12 03:13:47;;;;;;;8.23;5.00;;;7.90;99.90;;;;;;4981878;28;20226;-74
2024/03/12 03:16:12;;;;;;;7.33;5.07;;;7.90;99.90;;;;;;4972969;28;20226;-73
2024/03/12 03:18:38;;;;;;;6.60;4.23;;;7.90;99.90;;;;;;4966469;28;20230;-74
2024/03/12 03:21:04;;;;;;;6.27;5.10;;;7.90;99.90;;;;;;4981385;28;20225;-72
2024/03/12 03:23:30;;;;;;;7.30;4.37;;;8.00;99.90;;;;;;4957758;28;20230;-73
2024/03/12 03:25:55;;;;;;;7.40;4.80;;;8.00;99.90;;;;;;4980665;28;20469;-74
2024/03/12 03:28:21;;;;;;;6.90;4.93;;;8.00;99.90;;;;;;4976800;28;20221;-74
2024/03/12 03:30:49;;;;;;;7.60;4.10;;;7.90;99.90;;;;;;4948759;28;20214;-74
2024/03/12 03:33:16;;;;;;;6.93;4.87;;;8.00;99.90;;;;;;4976928;28;20514;-74
2024/03/12 03:35:41;;;;;;;8.70;4.60;;;8.00;99.90;;;;;;4978750;28;20458;-74
2024/03/12 03:38:08;;;;;;;6.50;4.70;;;8.00;99.90;;;;;;4966762;28;20491;-73
2024/03/12 03:40:34;;;;;;;9.27;4.50;;;8.00;99.90;;;;;;4979904;28;20691;-73
2024/03/12 03:43:00;;;;;;;6.03;4.23;;;8.00;99.90;;;;;;4961771;28;20457;-74
2024/03/12 03:45:25;;;;;;;6.83;4.73;;;8.00;99.90;;;;;;4960121;28;20214;-74
2024/03/12 03:47:51;;;;;;;5.93;3.60;;;8.00;99.90;;;;;;4965525;28;20583;-74
2024/03/12 03:50:17;;;;;;;8.53;4.77;;;8.10;99.90;;;;;;4976688;28;20214;-72
2024/03/12 03:52:43;;;;;;;5.03;4.00;;;8.10;99.90;;;;;;4975326;28;20233;-72
2024/03/12 03:55:09;;;;;;;6.40;4.50;;;8.10;99.90;;;;;;4976661;28;20210;-72
2024/03/12 03:57:36;;;;;;;4.30;3.83;;;8.10;99.90;;;;;;4974658;28;20476;-74
2024/03/12 04:00:12;;;;;;;4.90;3.43;;;8.20;99.90;;;;;;4980962;28;20492;-74
2024/03/12 04:02:39;;;;;;;7.77;3.90;;;8.30;99.90;;;;;;4960935;28;20813;-74
2024/03/12 04:05:06;;;;;;;7.40;3.83;;;8.30;99.90;;;;;;4964996;28;20457;-73
2024/03/12 04:07:31;;;;;;;7.27;3.93;;;8.30;99.90;;;;;;4975607;28;20463;-73
2024/03/12 04:09:57;;;;;;;8.80;4.33;;;8.40;99.90;;;;;;4979369;28;20453;-74
2024/03/12 04:12:22;;;;;;;4.40;3.27;;;8.40;99.90;;;;;;4975327;28;20300;-74
2024/03/12 04:14:48;;;;;;;6.53;3.97;;;8.40;99.90;;;;;;4962114;28;20226;-74
2024/03/12 04:17:14;;;;;;;5.93;3.37;;;8.30;99.90;;;;;;4964117;28;20225;-73
2024/03/12 04:19:40;;;;;;;6.07;3.97;;;8.30;99.90;;;;;;4969742;28;20229;-75
2024/03/12 04:22:06;;;;;;;6.03;3.03;;;8.40;99.90;;;;;;4964978;28;20723;-72
2024/03/12 04:24:31;;;;;;;6.07;4.53;;;8.40;99.90;;;;;;4985451;28;20492;-74
2024/03/12 04:26:57;;;;;;;6.07;4.60;;;8.40;99.90;;;;;;4967185;28;20238;-74
2024/03/12 04:29:22;;;;;;;5.43;3.90;;;8.30;99.90;;;;;;4978955;28;20299;-74
2024/03/12 04:31:48;;;;;;;5.67;4.10;;;8.30;99.90;;;;;;4978959;28;20223;-74
2024/03/12 04:34:14;;;;;;;8.27;4.20;;;8.30;99.90;;;;;;4973890;28;20305;-73
2024/03/12 04:36:40;;;;;;;4.47;3.53;;;8.30;99.90;;;;;;4977332;28;20249;-74
2024/03/12 04:39:30;;;;;;;6.23;3.80;;;8.20;99.90;;;;;;4967620;28;20230;-74
2024/03/12 04:42:05;;;;;;;4.17;3.43;;;8.20;99.90;;;;;;4973304;28;20469;-74
2024/03/12 04:44:33;;;;;;;7.20;4.40;;;8.20;99.90;;;;;;4983818;28;20451;-74
2024/03/12 04:46:59;;;;;;;4.80;3.60;;;8.10;99.90;;;;;;4972519;28;20492;-73
2024/03/12 04:49:26;;;;;;;8.43;4.57;;;8.10;99.90;;;;;;4987746;28;20488;-73
2024/03/12 04:51:52;;;;;;;5.83;3.87;;;8.20;99.90;;;;;;4971743;28;20477;-74
2024/03/12 04:54:21;;;;;;;5.50;3.83;;;8.10;99.90;;;;;;4978681;28;20465;-73
2024/03/12 04:56:47;;;;;;;7.23;4.30;;;8.00;99.90;;;;;;4975834;28;20461;-73
2024/03/12 04:59:14;;;;;;;5.90;3.77;;;8.00;99.90;;;;;;4981973;28;20528;-72
2024/03/12 05:01:44;;;;;;;5.43;3.50;;;8.00;99.90;;;;;;4975287;28;20464;-73
2024/03/12 05:04:11;;;;;;;4.57;3.40;;;8.00;99.90;;;;;;4988046;28;20465;-74
2024/03/12 05:06:37;;;;;;;8.53;3.97;;;8.00;99.90;;;;;;4989007;28;20544;-73
2024/03/12 05:09:03;;;;;;;6.10;4.40;;;8.00;99.90;;;;;;4989499;28;20486;-72
2024/03/12 05:11:28;;;;;;;5.63;3.47;;;7.90;99.90;;;;;;4988449;28;20288;-73
2024/03/12 05:13:54;;;;;;;7.17;3.80;;;7.90;99.90;;;;;;4973297;28;20226;-72
2024/03/12 05:16:25;;;;;;;7.23;3.83;;;7.90;99.90;;;;;;4976821;28;20222;-73
2024/03/12 05:18:50;;;;;;;7.27;4.67;;;7.90;99.90;;;;;;4966272;28;20286;-73
2024/03/12 05:21:16;;;;;;;6.97;4.20;;;7.90;99.90;;;;;;4973920;28;20453;-74
2024/03/12 05:23:42;;;;;;;8.40;4.50;;;7.90;99.90;;;;;;4993307;28;20229;-74
2024/03/12 05:26:08;;;;;;;7.00;5.00;;;7.90;99.90;;;;;;4991794;28;20489;-73
2024/03/12 05:28:35;;;;;;;5.83;4.13;;;7.90;99.90;;;;;;4986813;28;20574;-73
2024/03/12 05:31:02;;;;;;;6.47;4.60;;;7.90;99.90;;;;;;4988175;28;20214;-74
2024/03/12 05:33:38;;;;;;;6.33;4.03;;;7.90;99.90;;;;;;4986571;28;20476;-73
2024/03/12 05:36:09;;;;;;;6.83;3.67;;;7.90;99.90;;;;;;4988807;28;20841;-72
2024/03/12 05:38:44;;;;;;;7.07;4.20;;;7.90;99.90;;;;;;4990125;28;20468;-72
2024/03/12 05:49:08;;;;;;;7.30;4.73;;;7.90;99.90;;;;;;4988712;28;20789;-72
2024/03/12 05:51:36;;;;;;;7.80;5.20;;;7.80;99.90;;;;;;4985940;28;20471;-72
2024/03/12 05:54:01;;;;;;;7.60;5.10;;;7.90;99.90;;;;;;4991890;28;20215;-74
2024/03/12 05:56:29;;;;;;;6.83;4.30;;;7.90;99.90;;;;;;4985788;28;20520;-72
2024/03/12 05:58:55;;;;;;;8.73;5.70;;;7.90;99.90;;;;;;4989986;28;20233;-73
2024/03/12 06:01:23;;;;;;;8.10;4.80;;;7.90;99.90;;;;;;4990753;28;20509;-74
2024/03/12 06:03:52;;;;;;;8.27;5.20;;;7.90;99.90;;;;;;4969316;28;20232;-73
2024/03/12 06:06:17;;;;;;;7.60;5.50;;;7.90;99.90;;;;;;4984402;28;20458;-73
2024/03/12 06:08:44;;;;;;;9.57;5.80;;;7.80;99.90;;;;;;4973954;28;21009;-73
2024/03/12 06:11:14;;;;;;;11.07;6.00;;;7.80;99.90;;;;;;4984954;28;20796;-74
2024/03/12 06:13:40;;;;;;;8.20;5.40;;;7.80;99.90;;;;;;4973485;28;20481;-73
2024/03/12 06:16:06;;;;;;;12.00;6.20;;;7.80;99.90;;;;;;4987531;28;20478;-74
2024/03/12 06:18:32;;;;;;;10.40;6.73;;;7.80;99.90;;;;;;4968880;28;20226;-72
2024/03/12 06:20:57;;;;;;;11.10;6.23;;;7.80;99.90;;;;;;4991080;28;20519;-72
2024/03/12 06:23:25;;;;;;;11.27;5.80;;;7.80;99.90;;;;;;4987683;28;20231;-73
2024/03/12 06:25:51;;;;;;;8.03;5.80;;;7.80;99.90;;;;;;4987677;28;20460;-72
2024/03/12 06:28:20;;;;;;;12.40;6.60;;;7.90;99.90;;;;;;4967810;28;21179;-73
2024/03/12 06:30:46;;;;;;;9.83;5.30;;;8.00;99.90;;;;;;4986699;28;20465;-73
2024/03/12 06:33:12;;;;;;;13.90;6.80;;;8.00;99.90;;;;;;4986463;28;20894;-71
2024/03/12 06:35:40;;;;;;;9.07;6.00;;;8.00;99.90;;;;;;4987596;28;20237;-74
2024/03/12 06:38:05;;;;;;;9.40;5.87;;;8.10;99.90;;;;;;4983039;28;20468;-74
2024/03/12 06:40:31;;;;;;;10.90;6.13;;;8.10;99.90;;;;;;4980428;28;20455;-75
2024/03/12 06:43:00;;;;;;;10.60;5.77;;;8.20;99.90;;;;;;4968086;28;20544;-73
2024/03/12 06:45:29;;;;;;;12.23;5.23;;;8.30;99.90;;;;;;4977650;28;20242;-73
2024/03/12 06:47:55;;;;;;;10.87;5.50;;;8.30;99.90;;;;;;4981691;28;20516;-74
2024/03/12 06:50:25;;;;;;;10.73;6.40;;;8.30;99.90;;;;;;4967750;28;20454;-72
2024/03/12 06:52:55;;;;;;;12.53;6.17;;;8.30;99.90;;;;;;4983147;28;20465;-75
2024/03/12 06:55:24;;;;;;;8.57;6.13;;;8.30;99.90;;;;;;4966138;28;20453;-74
2024/03/12 06:57:54;;;;;;;12.30;7.20;;;8.20;99.90;;;;;;4983028;28;20568;-74
2024/03/12 07:00:32;;;;;;;9.87;6.30;;;8.20;99.90;;;;;;4985410;28;20506;-74
2024/03/12 07:02:58;;;;;;;11.30;6.33;;;8.20;99.90;;;;;;4985378;28;20472;-74
2024/03/12 07:05:29;;;;;;;13.30;7.70;;;8.20;99.90;;;;;;4986253;28;20461;-74
2024/03/12 07:07:55;;;;;;;15.10;7.03;;;8.20;99.90;;;;;;4985759;28;20970;-74
2024/03/12 07:10:22;;;;;;;10.93;6.13;;;8.20;99.90;;;;;;4986173;28;20461;-74
2024/03/12 07:12:48;;;;;;;12.30;7.17;;;8.30;99.90;;;;;;4976767;28;20467;-73
2024/03/12 07:15:16;;;;;;;12.23;7.40;;;8.20;99.90;;;;;;4970630;28;20460;-73
2024/03/12 07:17:42;;;;;;;11.87;6.80;;;8.20;99.90;;;;;;4980924;28;20571;-73
2024/03/12 07:20:10;;;;;;;11.33;6.93;;;8.20;99.90;;;;;;4986265;28;20560;-74
2024/03/12 07:22:37;;;;;;;11.97;7.63;;;8.20;99.90;;;;;;4981218;28;21048;-74
2024/03/12 07:25:06;;;;;;;15.30;8.10;;;8.30;99.90;;;;;;4983245;28;20841;-74
2024/03/12 07:27:32;;;;;;;12.70;7.10;;;8.30;99.90;;;;;;4967911;28;20921;-73
2024/03/12 07:29:59;;;;;;;14.40;7.83;;;8.30;99.90;;;;;;4969962;28;20450;-74
2024/03/12 07:32:24;;;;;;;15.33;8.30;;;8.40;99.90;;;;;;4967619;28;20468;-74
2024/03/12 07:34:50;;;;;;;12.57;7.37;;;8.40;99.90;;;;;;4985474;28;20457;-75
2024/03/12 07:37:17;;;;;;;11.90;7.50;;;8.40;99.90;;;;;;4954619;28;20228;-74
2024/03/12 07:39:43;;;;;;;13.63;7.50;;;8.40;99.90;;;;;;4983829;28;20312;-73
2024/03/12 07:42:18;;;;;;;17.77;7.27;;;8.40;99.90;;;;;;4970467;28;20567;-74
2024/03/12 07:44:47;;;;;;;13.67;8.07;;;8.50;99.90;;;;;;4986075;28;20531;-74
2024/03/12 07:47:16;;;;;;;14.40;7.90;;;8.50;99.90;;;;;;4983193;28;20491;-71
2024/03/12 07:49:42;;;;;;;16.57;8.20;;;8.50;99.90;;;;;;4969065;28;20468;-74
2024/03/12 07:52:13;;;;;;;14.10;8.90;;;8.50;99.90;;;;;;4975528;28;20463;-73
2024/03/12 07:54:38;;;;;;;17.33;9.73;;;8.50;99.90;;;;;;4973778;28;20221;-74
2024/03/12 07:57:11;;;;;;;15.77;7.90;;;8.60;99.90;;;;;;4988192;28;20468;-74
2024/03/12 07:59:37;;;;;;;14.10;8.43;;;8.60;99.90;;;;;;4973220;28;20233;-74
2024/03/12 08:02:11;;;;;;;16.97;8.83;;;8.60;99.90;;;;;;4990139;28;20465;-73
2024/03/12 08:04:42;;;;;;;12.70;7.83;;;8.60;99.90;;;;;;4988840;28;20466;-74
2024/03/12 08:07:12;;;;;;;17.50;9.80;;;8.70;99.90;;;;;;4979162;28;20485;-75
2024/03/12 08:09:38;;;;;;;16.70;8.03;;;8.70;99.90;;;;;;4981280;28;20867;-74
2024/03/12 08:12:04;;;;;;;18.20;9.10;;;8.70;99.90;;;;;;4983766;28;20476;-75
2024/03/12 08:14:31;;;;;;;18.93;9.30;;;8.70;99.90;;;;;;4984331;28;20469;-73
2024/03/12 08:16:59;;;;;;;15.93;9.67;;;8.70;99.90;;;;;;4987479;28;20468;-74
2024/03/12 08:19:25;;;;;;;14.83;8.80;;;8.70;99.90;;;;;;4968635;28;20481;-74
2024/03/12 08:21:52;;;;;;;18.60;8.50;;;8.80;99.90;;;;;;4984804;28;20472;-74
2024/03/12 08:24:18;;;;;;;13.50;8.57;;;8.80;99.90;;;;;;4984154;28;20222;-74
2024/03/12 08:26:44;;;;;;;16.23;8.80;;;8.80;99.90;;;;;;4972770;28;20911;-73
2024/03/12 08:29:11;;;;;;;16.53;9.40;;;8.90;99.90;;;;;;4953422;28;20465;-74
2024/03/12 08:31:38;;;;;;;17.40;8.97;;;8.90;99.90;;;;;;4976400;28;20605;-74
2024/03/12 08:34:05;;;;;;;13.20;7.80;;;8.90;99.90;;;;;;4970911;28;20544;-74
2024/03/12 08:36:31;;;;;;;14.40;7.73;;;8.90;99.90;;;;;;4971027;28;20560;-74
2024/03/12 08:38:59;;;;;;;17.57;7.80;;;9.00;99.90;;;;;;4990038;28;20480;-74
2024/03/12 08:41:26;;;;;;;12.37;6.73;;;9.00;99.90;;;;;;4988082;28;20464;-74
2024/03/12 08:43:51;;;;;;;17.80;8.27;;;9.00;99.90;;;;;;4988179;28;20552;-74
2024/03/12 08:46:18;;;;;;;13.63;7.30;;;9.10;99.90;;;;;;4976918;28;20557;-74
2024/03/12 08:48:44;;;;;;;14.40;6.90;;;9.10;99.90;;;;;;4970375;28;20338;-74
2024/03/12 08:51:11;;;;;;;17.20;7.57;;;9.10;99.90;;;;;;4986536;28;20489;-74
2024/03/12 08:53:37;;;;;;;9.40;6.20;;;9.10;99.90;;;;;;4987929;28;20260;-74
2024/03/12 08:56:03;;;;;;;15.97;7.87;;;9.10;99.90;;;;;;4971693;28;20494;-74
2024/03/12 08:58:29;;;;;;;21.63;6.60;;;9.10;99.90;;;;;;4988875;28;20225;-74
2024/03/12 09:00:57;;;;;;;12.10;6.73;;;9.10;99.90;;;;;;4986689;28;20468;-74
2024/03/12 09:03:22;;;;;;;11.67;6.90;;;9.10;99.90;;;;;;4982083;28;20745;-75
2024/03/12 09:05:48;;;;;;;14.87;6.30;;;9.20;99.90;;;;;;4990801;28;20473;-74
2024/03/12 09:08:14;;;;;;;11.30;7.17;;;9.20;99.90;;;;;;4972119;28;20217;-74
2024/03/12 09:10:41;;;;;;;11.57;6.03;;;9.20;99.90;;;;;;4971259;28;20245;-72
2024/03/12 09:13:08;;;;;;;8.27;5.73;;;9.20;99.90;;;;;;4970910;28;20851;-72
2024/03/12 09:15:34;;;;;;;13.07;6.17;;;9.30;99.90;;;;;;4988330;28;20457;-74
2024/03/12 09:18:06;;;;;;;11.07;5.10;;;9.30;99.90;;;;;;4983322;28;20474;-74
2024/03/12 09:20:36;;;;;;;10.00;5.40;;;9.30;99.90;;;;;;4987461;28;20280;-74
2024/03/12 09:23:02;;;;;;;12.80;5.87;;;9.30;99.90;;;;;;4986688;28;20481;-74
2024/03/12 09:25:30;;;;;;;12.50;6.70;;;9.30;99.90;;;;;;4989551;28;20536;-74
2024/03/12 09:27:55;;;;;;;10.70;6.73;;;9.40;99.90;;;;;;4974225;28;20460;-74
2024/03/12 09:30:23;;;;;;;8.53;5.97;;;9.40;99.90;;;;;;4970808;28;20462;-74
2024/03/12 09:32:50;;;;;;;9.27;5.73;;;9.40;99.90;;;;;;4972052;28;20226;-73
2024/03/12 09:35:18;;;;;;;11.33;5.67;;;9.40;99.90;;;;;;4985620;28;20459;-73
2024/03/12 09:37:44;;;;;;;17.23;6.80;;;9.40;99.90;;;;;;4981197;28;20453;-73
2024/03/12 09:40:11;;;;;;;12.17;6.43;;;9.40;99.90;;;;;;4983559;28;20459;-74
2024/03/12 09:42:37;;;;;;;7.00;4.83;;;9.40;99.90;;;;;;4967891;28;20461;-74
2024/03/12 09:45:06;;;;;;;8.17;5.30;;;9.40;99.90;;;;;;4988391;28;20461;-74
2024/03/12 09:47:33;;;;;;;11.63;5.30;;;9.40;99.90;;;;;;4984607;28;20455;-74
2024/03/12 09:50:01;;;;;;;10.27;5.50;;;9.40;99.90;;;;;;4988686;28;20547;-74
2024/03/12 09:52:29;;;;;;;10.67;5.10;;;9.30;99.90;;;;;;4987354;28;20496;-73
2024/03/12 09:54:55;;;;;;;10.10;5.40;;;9.40;99.90;;;;;;4987481;28;20555;-74
2024/03/12 09:57:22;;;;;;;9.30;5.00;;;9.40;99.90;;;;;;4982380;28;20465;-74
2024/03/12 09:59:48;;;;;;;9.43;5.20;;;9.40;99.90;;;;;;4989730;28;20523;-73
2024/03/12 10:02:14;;;;;;;7.57;5.00;;;9.50;99.90;;;;;;4988638;28;20461;-73
2024/03/12 10:04:40;;;;;;;11.80;5.20;;;9.50;99.90;;;;;;4987357;28;20226;-74
2024/03/12 10:07:06;;;;;;;9.10;4.93;;;9.50;99.90;;;;;;4966156;28;20465;-74
2024/03/12 10:09:31;;;;;;;10.10;5.57;;;9.50;99.90;;;;;;4982840;28;20261;-74
2024/03/12 10:12:01;;;;;;;7.80;5.00;;;9.60;99.90;;;;;;4971757;28;20597;-74
2024/03/12 10:14:37;;;;;;;10.30;4.90;;;9.60;99.90;;;;;;4984710;28;20238;-73
2024/03/12 10:17:13;;;;;;;14.27;5.83;;;9.60;99.90;;;;;;4971916;28;20468;-74
2024/03/12 10:19:43;;;;;;;7.17;5.23;;;9.70;99.90;;;;;;4971859;28;20529;-73
2024/03/12 10:22:16;;;;;;;10.13;5.93;;;9.70;99.90;;;;;;4984741;28;20461;-74
2024/03/12 10:24:41;;;;;;;11.63;6.10;;;9.70;99.90;;;;;;4984735;28;20476;-74
2024/03/12 10:27:07;;;;;;;9.50;6.27;;;9.70;99.90;;;;;;4986474;28;20456;-74
2024/03/12 10:29:36;;;;;;;11.43;5.33;;;9.70;99.90;;;;;;4991073;28;20233;-74
2024/03/12 10:32:18;;;;;;;15.20;5.80;;;9.70;99.90;;;;;;4970014;28;20230;-74
2024/03/12 10:34:45;;;;;;;12.00;5.87;;;9.80;99.90;;;;;;4969381;28;20460;-75
2024/03/12 10:37:29;;;;;;;10.43;5.90;;;9.80;99.90;;;;;;4980396;28;20467;-74
2024/03/12 10:39:55;;;;;;;8.80;5.20;;;9.90;99.90;;;;;;4987464;28;20548;-74
2024/03/12 10:42:25;;;;;;;10.53;5.37;;;9.90;99.90;;;;;;4966304;28;20559;-74
2024/03/12 10:44:51;;;;;;;8.93;5.53;;;9.90;99.90;;;;;;4968944;28;20228;-75
2024/03/12 10:47:18;;;;;;;7.83;5.23;;;9.90;99.90;;;;;;4985441;28;20533;-73
2024/03/12 10:49:48;;;;;;;9.40;5.50;;;10.00;99.90;;;;;;4983346;28;20978;-74
2024/03/12 10:52:18;;;;;;;7.87;4.10;;;10.00;99.90;;;;;;4962249;28;20491;-74
2024/03/12 10:54:46;;;;;;;8.70;5.40;;;10.00;99.90;;;;;;4970793;28;20453;-74
2024/03/12 10:57:13;;;;;;;10.10;4.50;;;10.00;99.90;;;;;;4971094;28;20469;-75
2024/03/12 10:59:39;;;;;;;9.90;4.97;;;10.10;99.90;;;;;;4989446;28;20493;-73
2024/03/12 11:02:06;;;;;;;11.17;4.90;;;10.10;99.90;;;;;;4970123;28;20531;-74
2024/03/12 11:04:35;;;;;;;7.90;4.93;;;10.10;99.90;;;;;;4986763;28;20441;-74
2024/03/12 11:07:02;;;;;;;9.40;5.53;;;10.10;99.90;;;;;;4975463;28;20555;-74
2024/03/12 11:09:28;;;;;;;9.47;5.23;;;10.20;99.90;;;;;;4951018;28;20987;-75
2024/03/12 11:11:54;;;;;;;10.57;5.70;;;10.20;99.90;;;;;;4965654;28;20464;-74
2024/03/12 11:14:20;;;;;;;7.60;4.83;;;10.20;99.90;;;;;;4974371;28;20472;-74
2024/03/12 11:16:46;;;;;;;10.70;6.23;;;10.30;99.90;;;;;;4981390;28;20461;-73
2024/03/12 11:19:20;;;;;;;10.00;6.30;;;10.30;99.90;;;;;;4980172;28;20233;-74
2024/03/12 11:21:50;;;;;;;9.40;5.70;;;10.30;99.90;;;;;;4982530;28;20235;-74
2024/03/12 11:24:29;;;;;;;12.13;6.77;;;10.30;99.90;;;;;;4983875;28;20471;-73
2024/03/12 11:26:59;;;;;;;8.00;5.17;;;10.30;99.90;;;;;;4975374;28;20462;-74
2024/03/12 11:29:59;;;;;;;10.90;5.30;;;10.30;99.90;;;;;;4975995;28;20477;-74
2024/03/12 11:32:31;;;;;;;9.73;5.80;;;10.30;99.90;;;;;;4979215;28;20484;-74
2024/03/12 11:34:57;;;;;;;15.10;6.47;;;10.30;99.90;;;;;;4972533;28;20479;-74
2024/03/12 11:37:24;;;;;;;10.43;6.37;;;10.40;99.90;;;;;;4976864;28;20469;-74
2024/03/12 11:40:28;;;;;;;12.67;6.37;;;10.40;99.90;;;;;;4965929;28;20304;-74
2024/03/12 11:42:55;;;;;;;10.60;6.57;;;10.30;99.90;;;;;;4981080;28;20479;-74
2024/03/12 11:45:45;;;;;;;10.50;6.43;;;10.40;99.90;;;;;;4970681;28;20479;-73
2024/03/12 11:48:13;;;;;;;15.50;7.30;;;10.40;99.90;;;;;;4979683;28;21005;-74
2024/03/12 11:50:42;;;;;;;10.03;7.17;;;10.40;99.90;;;;;;4979838;28;20459;-74
2024/03/12 11:53:18;;;;;;;15.20;8.17;;;10.40;99.90;;;;;;4977469;28;20457;-73
2024/03/12 11:56:05;;;;;;;11.80;7.20;;;10.40;99.90;;;;;;4954693;28;20836;-74
2024/03/12 11:58:32;;;;;;;13.53;7.53;;;10.40;99.90;;;;;;4975754;28;20465;-74
2024/03/12 12:00:59;;;;;;;9.63;6.30;;;10.40;99.90;;;;;;4980413;28;20501;-75
2024/03/12 12:03:25;;;;;;;11.30;7.00;;;10.40;99.90;;;;;;4974036;28;20466;-74
2024/03/12 12:05:52;;;;;;;18.97;8.50;;;10.40;99.90;;;;;;4980262;28;20469;-74
2024/03/12 12:08:18;;;;;;;10.60;7.10;;;10.40;99.90;;;;;;4978123;28;20449;-74
2024/03/12 12:11:03;;;;;;;10.87;6.90;;;10.50;99.90;;;;;;4974877;28;20465;-75
2024/03/12 12:13:32;;;;;;;13.90;7.87;;;10.40;99.90;;;;;;4956686;28;20483;-74
2024/03/12 12:16:04;;;;;;;14.87;7.87;;;10.40;99.90;;;;;;4981246;28;20496;-75
2024/03/12 12:18:31;;;;;;;14.40;8.10;;;10.40;99.90;;;;;;4974340;28;20480;-74
2024/03/12 12:21:03;;;;;;;15.40;8.40;;;10.40;99.90;;;;;;4978881;28;20472;-74
2024/03/12 12:23:29;;;;;;;14.83;7.93;;;10.40;99.90;;;;;;4962795;28;20491;-74
2024/03/12 12:25:57;;;;;;;14.40;8.73;;;10.40;99.90;;;;;;4978929;28;20453;-73
2024/03/12 12:28:26;;;;;;;13.40;7.90;;;10.50;99.90;;;;;;4959238;28;20937;-75
2024/03/12 12:30:54;;;;;;;13.53;7.60;;;10.50;99.90;;;;;;4975390;28;20460;-74
2024/03/12 12:33:26;;;;;;;13.17;8.27;;;10.50;99.90;;;;;;4946979;28;20469;-74
2024/03/12 12:35:54;;;;;;;16.10;8.80;;;10.60;99.90;;;;;;4978320;28;20476;-75
2024/03/12 12:38:21;;;;;;;13.10;8.83;;;10.60;99.90;;;;;;4974795;28;20572;-74
2024/03/12 12:40:48;;;;;;;14.53;8.47;;;10.60;99.90;;;;;;4984231;28;20467;-74
2024/03/12 12:43:19;;;;;;;17.93;9.43;;;10.70;99.90;;;;;;4955977;28;20464;-74
2024/03/12 12:45:55;;;;;;;15.70;8.80;;;10.70;99.90;;;;;;4989463;28;20882;-73
2024/03/12 12:48:23;;;;;;;15.53;8.30;;;10.70;99.90;;;;;;4977722;28;20468;-74
2024/03/12 12:50:58;;;;;;;15.40;8.97;;;10.70;99.90;;;;;;4984006;28;20528;-74
2024/03/12 12:53:25;;;;;;;14.23;7.57;;;10.70;99.90;;;;;;4978021;28;20501;-74
2024/03/12 12:56:05;;;;;;;17.80;8.10;;;10.80;99.90;;;;;;4971875;28;20523;-74
2024/03/12 12:58:34;;;;;;;14.87;8.60;;;10.80;99.90;;;;;;4976818;28;20833;-74
2024/03/12 13:01:06;;;;;;;14.50;8.97;;;10.80;99.90;;;;;;4980115;28;20469;-74
2024/03/12 13:03:37;;;;;;;16.30;8.60;;;10.80;99.90;;;;;;4978698;28;20565;-74